Time;durP1;ratioP1;P1;durP2;ratioP2;P2;SDS_P1;SDS_P2;PMS_P1;PMS_P2;Temp;Humidity;BMP_temperature;BMP_pressure;BME280_temperature;BME280_humidity;BME280_pressure;Samples;Min_cycle;Max_cycle;Signal;HPM_P1;HPM_P2
2023/08/27 00:01:13;;;;;;;8.32;6.68;;;;;;;;;;5091275;28;20502;-89
2023/08/27 00:03:39;;;;;;;9.15;7.30;;;;;;;;;;5091321;28;20449;-88
2023/08/27 00:06:04;;;;;;;10.57;7.90;;;;;;;;;;5091139;28;20089;-89
2023/08/27 00:08:30;;;;;;;10.52;7.35;;;;;;;;;;5092991;28;20034;-89
2023/08/27 00:10:59;;;;;;;9.23;6.97;;;;;;;;;;5091765;28;20028;-88
2023/08/27 00:13:24;;;;;;;7.82;7.03;;;;;;;;;;5092155;28;20028;-90
2023/08/27 00:15:50;;;;;;;8.45;7.00;;;;;;;;;;5091944;28;20028;-89
2023/08/27 00:18:15;;;;;;;8.65;7.07;;;;;;;;;;5093522;28;20390;-87
2023/08/27 00:20:41;;;;;;;11.63;7.63;;;;;;;;;;5095075;28;20452;-89
2023/08/27 00:23:08;;;;;;;9.23;7.80;;;;;;;;;;5097101;28;20039;-89
2023/08/27 00:25:34;;;;;;;8.85;7.88;;;;;;;;;;5078723;28;20135;-89
2023/08/27 00:27:59;;;;;;;10.48;8.02;;;;;;;;;;5094791;28;20177;-89
2023/08/27 00:30:25;;;;;;;9.40;8.15;;;;;;;;;;5095481;28;20039;-90
2023/08/27 00:32:50;;;;;;;11.45;8.30;;;;;;;;;;5095265;28;20032;-89
2023/08/27 00:35:16;;;;;;;102.90;12.10;;;;;;;;;;5096084;28;20453;-89
2023/08/27 00:37:41;;;;;;;45.08;10.75;;;;;;;;;;5096114;28;20158;-88
2023/08/27 00:40:07;;;;;;;30.88;10.75;;;;;;;;;;5061665;28;20119;-89
2023/08/27 00:42:35;;;;;;;76.13;10.98;;;;;;;;;;5111878;28;20020;-89
2023/08/27 00:45:00;;;;;;;120.18;13.38;;;;;;;;;;5095031;28;20039;-88
2023/08/27 00:47:27;;;;;;;98.72;12.50;;;;;;;;;;5077878;28;20024;-89
2023/08/27 00:49:52;;;;;;;72.10;13.63;;;;;;;;;;5078331;28;20036;-89
2023/08/27 00:52:18;;;;;;;44.25;11.77;;;;;;;;;;5078209;28;20060;-89
2023/08/27 00:54:44;;;;;;;75.38;13.20;;;;;;;;;;5061597;28;20036;-89
2023/08/27 00:57:10;;;;;;;30.48;12.07;;;;;;;;;;5095105;28;20059;-88
2023/08/27 00:59:35;;;;;;;55.55;14.02;;;;;;;;;;5078069;28;20463;-89
2023/08/27 01:02:02;;;;;;;98.15;14.75;;;;;;;;;;5094731;28;20017;-89
2023/08/27 01:04:28;;;;;;;66.25;12.10;;;;;;;;;;5094525;28;20039;-89
2023/08/27 01:06:55;;;;;;;73.55;12.48;;;;;;;;;;5095605;28;20106;-89
2023/08/27 01:09:25;;;;;;;75.18;12.52;;;;;;;;;;5077588;28;20638;-89
2023/08/27 01:11:53;;;;;;;86.45;12.73;;;;;;;;;;5077495;28;20043;-89
2023/08/27 01:14:19;;;;;;;67.75;11.93;;;;;;;;;;5095605;28;20032;-89
2023/08/27 01:16:44;;;;;;;50.50;11.65;;;;;;;;;;5078308;28;20036;-89
2023/08/27 01:19:14;;;;;;;89.15;11.90;;;;;;;;;;5077565;28;20165;-88
2023/08/27 01:21:43;;;;;;;146.98;14.02;;;;;;;;;;5094010;28;20043;-89
2023/08/27 01:24:08;;;;;;;125.90;12.93;;;;;;;;;;5077089;28;20046;-88
2023/08/27 01:26:40;;;;;;;190.70;15.00;;;;;;;;;;5095201;28;20048;-89
2023/08/27 01:29:10;;;;;;;220.05;15.68;;;;;;;;;;5094340;28;20028;-88
2023/08/27 01:31:38;;;;;;;221.32;15.77;;;;;;;;;;5076914;28;20174;-88
2023/08/27 01:34:05;;;;;;;151.68;14.15;;;;;;;;;;5077545;28;20024;-87
2023/08/27 01:36:34;;;;;;;165.02;14.38;;;;;;;;;;5077306;28;20032;-88
2023/08/27 01:39:00;;;;;;;203.95;16.13;;;;;;;;;;5061467;28;20036;-88
2023/08/27 01:41:25;;;;;;;171.60;14.48;;;;;;;;;;5096607;28;20032;-88
2023/08/27 01:43:51;;;;;;;150.52;14.32;;;;;;;;;;5095557;28;20032;-88
2023/08/27 01:46:17;;;;;;;129.70;12.90;;;;;;;;;;5078731;28;20039;-88
2023/08/27 01:48:42;;;;;;;215.20;15.07;;;;;;;;;;5095081;28;20091;-87
2023/08/27 01:51:08;;;;;;;197.80;14.73;;;;;;;;;;5094301;28;20036;-88
2023/08/27 01:53:33;;;;;;;112.65;13.02;;;;;;;;;;5075919;28;20501;-88
2023/08/27 01:55:59;;;;;;;162.10;15.43;;;;;;;;;;5093578;28;20076;-88
2023/08/27 01:58:24;;;;;;;133.93;13.38;;;;;;;;;;5094127;28;20166;-88
2023/08/27 02:00:50;;;;;;;87.57;12.73;;;;;;;;;;5076806;28;20585;-88
2023/08/27 02:03:15;;;;;;;99.07;12.63;;;;;;;;;;5076580;28;20020;-88
2023/08/27 02:05:41;;;;;;;63.88;11.32;;;;;;;;;;5076809;28;20410;-89
2023/08/27 02:08:06;;;;;;;48.85;11.63;;;;;;;;;;5076878;28;20035;-89
2023/08/27 02:10:33;;;;;;;77.95;12.85;;;;;;;;;;5093027;28;20036;-89
2023/08/27 02:12:58;;;;;;;73.82;11.85;;;;;;;;;;5076244;28;20372;-89
2023/08/27 02:15:24;;;;;;;53.97;10.98;;;;;;;;;;5092961;28;20105;-89
2023/08/27 02:17:49;;;;;;;62.35;11.55;;;;;;;;;;5094647;28;20032;-89
2023/08/27 02:20:15;;;;;;;51.97;12.07;;;;;;;;;;5076909;28;20085;-88
2023/08/27 02:22:40;;;;;;;23.27;11.15;;;;;;;;;;5093656;28;20477;-90
2023/08/27 02:25:07;;;;;;;44.40;11.75;;;;;;;;;;5076860;28;20078;-89
2023/08/27 02:27:32;;;;;;;44.45;11.80;;;;;;;;;;5076302;28;20119;-90
2023/08/27 02:29:58;;;;;;;45.33;11.18;;;;;;;;;;5093044;28;20452;-88
2023/08/27 02:32:24;;;;;;;59.67;11.02;;;;;;;;;;5093317;28;20438;-88
2023/08/27 02:34:49;;;;;;;38.03;9.70;;;;;;;;;;5059001;28;20081;-88
2023/08/27 02:37:15;;;;;;;55.33;10.85;;;;;;;;;;5092473;28;20044;-87
2023/08/27 02:39:40;;;;;;;42.40;11.00;;;;;;;;;;5075536;28;20028;-88
2023/08/27 02:42:06;;;;;;;65.45;11.43;;;;;;;;;;5075810;28;20033;-89
2023/08/27 02:44:31;;;;;;;58.00;11.35;;;;;;;;;;5074965;28;20063;-88
2023/08/27 02:46:57;;;;;;;49.33;12.18;;;;;;;;;;5075581;28;20050;-89
2023/08/27 02:49:22;;;;;;;49.42;9.88;;;;;;;;;;5075686;28;20032;-90
2023/08/27 02:51:48;;;;;;;47.60;10.68;;;;;;;;;;5093702;28;20559;-89
2023/08/27 02:54:14;;;;;;;48.20;10.90;;;;;;;;;;5093506;28;20040;-89
2023/08/27 02:56:39;;;;;;;66.03;10.23;;;;;;;;;;5093301;28;20467;-89
2023/08/27 02:59:05;;;;;;;69.38;10.88;;;;;;;;;;5076335;28;20077;-89
2023/08/27 03:01:30;;;;;;;72.70;10.52;;;;;;;;;;5092886;28;20398;-89
2023/08/27 03:03:56;;;;;;;108.00;10.80;;;;;;;;;;5075721;28;20122;-89
2023/08/27 03:06:21;;;;;;;85.57;10.52;;;;;;;;;;5092599;28;20050;-89
2023/08/27 03:08:47;;;;;;;88.97;10.32;;;;;;;;;;5092703;28;20058;-89
2023/08/27 03:11:12;;;;;;;53.38;9.85;;;;;;;;;;5093831;28;20180;-89
2023/08/27 03:13:38;;;;;;;131.68;11.73;;;;;;;;;;5092552;28;20410;-89
2023/08/27 03:16:03;;;;;;;183.38;13.20;;;;;;;;;;5075795;28;20028;-88
2023/08/27 03:18:29;;;;;;;171.80;12.32;;;;;;;;;;5091858;28;20032;-89
2023/08/27 03:20:55;;;;;;;115.78;10.73;;;;;;;;;;5075613;28;20055;-89
2023/08/27 03:23:20;;;;;;;138.57;10.38;;;;;;;;;;5092684;28;20024;-89
2023/08/27 03:25:48;;;;;;;140.07;10.65;;;;;;;;;;5091557;28;20040;-90
2023/08/27 03:28:13;;;;;;;62.65;9.40;;;;;;;;;;5074753;28;20042;-88
2023/08/27 03:30:40;;;;;;;63.80;9.30;;;;;;;;;;5091518;28;20032;-88
2023/08/27 03:33:05;;;;;;;177.35;13.27;;;;;;;;;;5093920;28;20054;-88
2023/08/27 03:35:31;;;;;;;116.03;10.55;;;;;;;;;;5075216;28;20039;-88
2023/08/27 03:37:57;;;;;;;133.52;10.63;;;;;;;;;;5074994;28;20390;-88
2023/08/27 03:40:23;;;;;;;68.45;9.63;;;;;;;;;;5092632;28;20066;-88
2023/08/27 03:42:48;;;;;;;56.97;9.25;;;;;;;;;;5092414;28;20050;-88
2023/08/27 03:45:13;;;;;;;70.63;9.80;;;;;;;;;;5091806;28;20434;-88
2023/08/27 03:47:39;;;;;;;71.32;9.07;;;;;;;;;;5073555;28;20020;-88
2023/08/27 03:50:05;;;;;;;49.35;10.63;;;;;;;;;;5093002;28;20059;-89
2023/08/27 03:52:30;;;;;;;36.45;9.43;;;;;;;;;;5074790;28;20487;-90
2023/08/27 03:54:56;;;;;;;67.45;10.68;;;;;;;;;;5094273;28;20036;-90
2023/08/27 03:57:21;;;;;;;84.38;12.25;;;;;;;;;;5079437;28;20031;-89
2023/08/27 03:59:47;;;;;;;80.88;13.48;;;;;;;;;;5079218;28;20092;-89
2023/08/27 04:02:14;;;;;;;56.35;13.32;;;;;;;;;;5079254;28;20028;-89
2023/08/27 04:04:39;;;;;;;44.00;13.20;;;;;;;;;;5062200;28;20038;-90
2023/08/27 04:07:05;;;;;;;45.10;14.45;;;;;;;;;;5096113;28;20111;-88
2023/08/27 04:09:30;;;;;;;97.80;15.80;;;;;;;;;;5097449;28;20036;-89
2023/08/27 04:11:56;;;;;;;51.33;14.07;;;;;;;;;;5095737;28;20024;-88
2023/08/27 04:14:21;;;;;;;83.53;12.82;;;;;;;;;;5079050;28;20036;-90
2023/08/27 04:16:47;;;;;;;100.88;12.70;;;;;;;;;;5079037;28;20032;-89
2023/08/27 04:19:13;;;;;;;54.03;11.27;;;;;;;;;;5096905;28;20028;-88
2023/08/27 04:21:39;;;;;;;18.08;10.05;;;;;;;;;;5095542;28;20445;-88
2023/08/27 04:24:04;;;;;;;29.77;9.48;;;;;;;;;;5095070;28;20050;-88
2023/08/27 04:26:30;;;;;;;32.83;9.55;;;;;;;;;;5094743;28;20168;-88
2023/08/27 04:28:56;;;;;;;58.08;9.85;;;;;;;;;;5095131;28;20036;-88
2023/08/27 04:31:21;;;;;;;77.50;9.65;;;;;;;;;;5077633;28;20035;-91
2023/08/27 04:33:47;;;;;;;87.68;9.48;;;;;;;;;;5095015;28;20070;-88
2023/08/27 04:36:12;;;;;;;79.75;9.55;;;;;;;;;;5078274;28;20020;-88
2023/08/27 04:38:38;;;;;;;43.40;8.10;;;;;;;;;;5095616;28;20051;-87
2023/08/27 04:41:03;;;;;;;29.42;8.02;;;;;;;;;;5095032;28;20043;-88
2023/08/27 04:43:29;;;;;;;42.30;8.75;;;;;;;;;;5096211;28;20123;-88
2023/08/27 04:45:54;;;;;;;75.18;9.15;;;;;;;;;;5096751;28;20055;-88
2023/08/27 04:48:20;;;;;;;51.38;9.52;;;;;;;;;;5096632;28;20036;-88
2023/08/27 04:50:46;;;;;;;22.45;9.65;;;;;;;;;;5095954;28;20130;-88
2023/08/27 04:53:12;;;;;;;53.83;9.43;;;;;;;;;;5094596;28;20467;-89
2023/08/27 04:55:38;;;;;;;69.03;9.38;;;;;;;;;;5077794;28;20059;-88
2023/08/27 04:58:04;;;;;;;25.52;9.50;;;;;;;;;;5078971;28;20088;-89
2023/08/27 05:00:29;;;;;;;14.77;9.10;;;;;;;;;;5096711;28;20461;-89
2023/08/27 05:02:55;;;;;;;10.43;8.88;;;;;;;;;;5095863;28;20376;-88
2023/08/27 05:05:20;;;;;;;10.95;8.90;;;;;;;;;;5077599;28;20020;-89
2023/08/27 05:07:47;;;;;;;11.75;10.10;;;;;;;;;;5076434;28;20044;-89
2023/08/27 05:10:12;;;;;;;39.88;10.82;;;;;;;;;;5094631;28;20024;-89
2023/08/27 05:12:38;;;;;;;23.25;9.95;;;;;;;;;;5077783;28;20028;-88
2023/08/27 05:15:06;;;;;;;19.40;10.45;;;;;;;;;;5077910;28;20120;-88
2023/08/27 05:17:32;;;;;;;10.88;9.55;;;;;;;;;;5094064;28;20031;-88
2023/08/27 05:19:57;;;;;;;14.63;10.25;;;;;;;;;;5095600;28;20032;-89
2023/08/27 05:22:23;;;;;;;23.75;11.02;;;;;;;;;;5096207;28;20028;-89
2023/08/27 05:24:48;;;;;;;33.70;11.68;;;;;;;;;;5094474;28;20415;-88
2023/08/27 05:27:14;;;;;;;20.05;10.95;;;;;;;;;;5077173;28;20043;-88
2023/08/27 05:29:39;;;;;;;18.85;11.50;;;;;;;;;;5076867;28;20028;-89
2023/08/27 05:32:05;;;;;;;25.95;12.73;;;;;;;;;;5094565;28;20105;-89
2023/08/27 05:34:31;;;;;;;36.20;13.20;;;;;;;;;;5093955;28;20143;-89
2023/08/27 05:36:56;;;;;;;16.42;12.63;;;;;;;;;;5094392;28;20056;-89
2023/08/27 05:39:22;;;;;;;14.55;11.73;;;;;;;;;;5093561;28;20104;-88
2023/08/27 05:41:47;;;;;;;14.93;11.07;;;;;;;;;;5093478;28;20036;-88
2023/08/27 05:44:13;;;;;;;13.30;11.23;;;;;;;;;;5093372;28;20088;-88
2023/08/27 05:46:40;;;;;;;13.45;10.82;;;;;;;;;;5060653;28;20403;-89
2023/08/27 05:49:05;;;;;;;14.43;11.40;;;;;;;;;;5076554;28;20024;-88
2023/08/27 05:51:32;;;;;;;12.65;10.52;;;;;;;;;;5076971;28;20055;-88
2023/08/27 05:53:58;;;;;;;11.60;10.05;;;;;;;;;;5077019;28;20032;-89
2023/08/27 05:56:26;;;;;;;12.27;10.20;;;;;;;;;;5093653;28;20543;-89
2023/08/27 05:58:52;;;;;;;13.60;10.07;;;;;;;;;;5092973;28;20020;-89
2023/08/27 06:01:18;;;;;;;14.95;10.57;;;;;;;;;;5076287;28;20035;-89
2023/08/27 06:03:43;;;;;;;10.52;9.23;;;;;;;;;;5076749;28;20596;-89
2023/08/27 06:06:09;;;;;;;10.27;9.18;;;;;;;;;;5076386;28;20406;-88
2023/08/27 06:08:36;;;;;;;10.30;8.93;;;;;;;;;;5059927;28;20031;-89
2023/08/27 06:11:04;;;;;;;11.75;9.98;;;;;;;;;;5076747;28;20173;-89
2023/08/27 06:13:30;;;;;;;10.80;9.70;;;;;;;;;;5093773;28;20054;-89
2023/08/27 06:15:56;;;;;;;11.73;10.30;;;;;;;;;;5093343;28;20032;-90
2023/08/27 06:18:22;;;;;;;14.10;11.30;;;;;;;;;;5093592;28;20028;-88
2023/08/27 06:20:48;;;;;;;13.20;11.32;;;;;;;;;;5076155;28;20141;-89
2023/08/27 06:23:14;;;;;;;12.55;10.88;;;;;;;;;;5075785;28;20102;-89
2023/08/27 06:25:41;;;;;;;15.77;11.38;;;;;;;;;;5094277;28;20079;-88
2023/08/27 06:28:06;;;;;;;13.57;10.70;;;;;;;;;;5092871;28;20036;-89
2023/08/27 06:30:32;;;;;;;12.38;10.45;;;;;;;;;;5093395;28;20032;-89
2023/08/27 06:33:01;;;;;;;13.13;10.73;;;;;;;;;;5076787;28;20078;-89
2023/08/27 06:35:27;;;;;;;13.90;10.65;;;;;;;;;;5076402;28;20043;-89
2023/08/27 06:37:53;;;;;;;14.25;11.07;;;;;;;;;;5093439;28;20020;-89
2023/08/27 06:40:19;;;;;;;13.52;10.82;;;;;;;;;;5092797;28;20035;-89
2023/08/27 06:42:44;;;;;;;11.93;10.50;;;;;;;;;;5076196;28;20024;-89
2023/08/27 06:45:15;;;;;;;12.18;10.68;;;;;;;;;;5093731;28;20031;-89
2023/08/27 06:47:41;;;;;;;14.48;9.52;;;;;;;;;;5092574;28;20036;-88
2023/08/27 06:50:06;;;;;;;13.00;9.50;;;;;;;;;;5093270;28;20158;-90
2023/08/27 06:52:32;;;;;;;10.80;9.55;;;;;;;;;;5094488;28;20035;-89
2023/08/27 06:54:59;;;;;;;13.30;10.75;;;;;;;;;;5092846;28;20020;-89
2023/08/27 06:57:25;;;;;;;12.32;9.68;;;;;;;;;;5076207;28;20071;-88
2023/08/27 06:59:52;;;;;;;10.40;9.40;;;;;;;;;;5092671;28;20020;-90
2023/08/27 07:02:18;;;;;;;9.95;8.65;;;;;;;;;;5076312;28;20505;-88
2023/08/27 07:04:43;;;;;;;9.50;8.02;;;;;;;;;;5075920;28;20398;-89
2023/08/27 07:07:09;;;;;;;10.70;8.48;;;;;;;;;;5092835;28;20383;-90
2023/08/27 07:09:35;;;;;;;9.95;8.52;;;;;;;;;;5076096;28;20039;-89
2023/08/27 07:12:00;;;;;;;8.93;7.80;;;;;;;;;;5092498;28;20078;-91
2023/08/27 07:14:26;;;;;;;9.45;7.90;;;;;;;;;;5075204;28;20403;-89
2023/08/27 07:16:51;;;;;;;8.50;7.50;;;;;;;;;;5075273;28;20038;-89
2023/08/27 07:19:17;;;;;;;9.50;7.75;;;;;;;;;;5075101;28;20024;-89
2023/08/27 07:21:42;;;;;;;8.95;7.75;;;;;;;;;;5076023;28;20024;-90
2023/08/27 07:24:08;;;;;;;9.30;7.55;;;;;;;;;;5075926;28;20020;-89
2023/08/27 07:26:34;;;;;;;8.90;7.13;;;;;;;;;;5075886;28;20085;-90
2023/08/27 07:28:59;;;;;;;9.70;7.70;;;;;;;;;;5092121;28;20044;-90
2023/08/27 07:31:25;;;;;;;9.27;6.85;;;;;;;;;;5092133;28;20126;-90
2023/08/27 07:33:52;;;;;;;8.35;6.53;;;;;;;;;;5092121;28;20110;-89
2023/08/27 07:36:17;;;;;;;7.78;6.93;;;;;;;;;;5075793;28;20051;-90
2023/08/27 07:38:43;;;;;;;8.10;5.95;;;;;;;;;;5093441;28;20032;-90
2023/08/27 07:41:09;;;;;;;6.55;5.68;;;;;;;;;;5076920;28;20057;-90
2023/08/27 07:43:34;;;;;;;8.48;5.55;;;;;;;;;;5075590;28;20077;-90
2023/08/27 07:46:00;;;;;;;6.78;5.82;;;;;;;;;;5094574;28;20116;-88
2023/08/27 07:48:27;;;;;;;10.20;5.70;;;;;;;;;;5075286;28;20126;-90
2023/08/27 07:50:53;;;;;;;7.63;5.80;;;;;;;;;;5075561;28;20040;-89
2023/08/27 07:53:18;;;;;;;7.20;5.38;;;;;;;;;;5075716;28;20424;-90
2023/08/27 07:55:44;;;;;;;7.57;4.80;;;;;;;;;;5075329;28;20036;-89
2023/08/27 07:58:10;;;;;;;7.38;5.18;;;;;;;;;;5094587;28;20391;-89
2023/08/27 08:00:36;;;;;;;7.30;5.00;;;;;;;;;;5075940;28;20032;-91
2023/08/27 08:03:02;;;;;;;7.40;5.35;;;;;;;;;;5092800;28;20023;-89
2023/08/27 08:05:28;;;;;;;9.45;5.70;;;;;;;;;;5093151;28;20032;-90
2023/08/27 08:07:53;;;;;;;7.55;5.03;;;;;;;;;;5092309;28;20057;-90
2023/08/27 08:10:20;;;;;;;8.68;5.40;;;;;;;;;;5093185;28;20042;-89
2023/08/27 08:12:46;;;;;;;6.43;5.18;;;;;;;;;;5060501;28;20024;-90
2023/08/27 08:15:12;;;;;;;7.47;5.35;;;;;;;;;;5092751;28;20040;-90
2023/08/27 08:17:37;;;;;;;7.07;5.07;;;;;;;;;;5092666;28;20102;-89
2023/08/27 08:20:03;;;;;;;7.82;5.25;;;;;;;;;;5076117;28;20056;-90
2023/08/27 08:22:29;;;;;;;6.72;5.30;;;;;;;;;;5093359;28;20034;-90
2023/08/27 08:24:55;;;;;;;5.93;4.88;;;;;;;;;;5058923;28;20499;-90
2023/08/27 08:27:21;;;;;;;6.88;6.00;;;;;;;;;;5093685;28;20047;-92
2023/08/27 08:29:46;;;;;;;6.57;4.90;;;;;;;;;;5092932;28;20048;-91
2023/08/27 08:32:12;;;;;;;6.10;4.75;;;;;;;;;;5091797;28;20067;-90
2023/08/27 08:34:39;;;;;;;6.10;4.13;;;;;;;;;;5092761;28;20135;-90
2023/08/27 08:37:04;;;;;;;8.80;5.90;;;;;;;;;;5076380;28;20048;-91
2023/08/27 08:39:30;;;;;;;7.40;5.28;;;;;;;;;;5076342;28;20028;-90
2023/08/27 08:42:19;;;;;;;10.27;7.20;;;;;;;;;;5098038;28;20028;-89
2023/08/27 08:44:44;;;;;;;7.88;6.10;;;;;;;;;;5086463;28;20138;-90
2023/08/27 08:47:10;;;;;;;7.47;4.72;;;;;;;;;;5097785;28;20051;-90
2023/08/27 08:49:36;;;;;;;5.38;3.65;;;;;;;;;;5079499;28;20040;-91
2023/08/27 08:52:02;;;;;;;7.70;5.90;;;;;;;;;;5096512;28;20028;-91
2023/08/27 08:54:28;;;;;;;8.23;5.43;;;;;;;;;;5078823;28;20464;-90
2023/08/27 08:56:55;;;;;;;5.38;3.90;;;;;;;;;;5078986;28;20108;-90
2023/08/27 08:59:22;;;;;;;8.82;4.20;;;;;;;;;;5078816;28;20036;-90
2023/08/27 09:01:47;;;;;;;7.25;5.90;;;;;;;;;;5095701;28;20024;-90
2023/08/27 09:04:13;;;;;;;6.55;5.35;;;;;;;;;;5096318;28;20036;-90
2023/08/27 09:06:39;;;;;;;8.50;4.97;;;;;;;;;;5078812;28;20486;-90
2023/08/27 09:09:05;;;;;;;8.50;4.60;;;;;;;;;;5094447;28;20036;-90
2023/08/27 09:11:31;;;;;;;8.85;4.63;;;;;;;;;;5061311;28;20024;-89
2023/08/27 09:13:57;;;;;;;9.98;5.07;;;;;;;;;;5095282;28;20040;-91
2023/08/27 09:16:22;;;;;;;9.07;4.72;;;;;;;;;;5096899;28;20036;-90
2023/08/27 09:18:48;;;;;;;5.60;4.70;;;;;;;;;;5079883;28;20032;-91
2023/08/27 09:21:13;;;;;;;14.02;5.10;;;;;;;;;;5079467;28;20036;-93
2023/08/27 09:23:39;;;;;;;6.05;4.90;;;;;;;;;;5099869;28;20055;-90
2023/08/27 09:26:08;;;;;;;7.85;5.35;;;;;;;;;;5096094;28;20056;-89
2023/08/27 09:28:34;;;;;;;8.13;4.85;;;;;;;;;;5097375;28;20032;-91
2023/08/27 09:31:01;;;;;;;7.88;5.15;;;;;;;;;;5081781;28;20035;-91
2023/08/27 09:33:36;;;;;;;5.68;4.43;;;;;;;;;;5078081;28;20173;-90
2023/08/27 09:36:02;;;;;;;8.27;4.90;;;;;;;;;;5095348;28;20036;-89
2023/08/27 09:38:32;;;;;;;8.07;5.10;;;;;;;;;;5080531;28;20655;-91
2023/08/27 09:40:57;;;;;;;10.45;5.40;;;;;;;;;;5097291;28;20517;-91
2023/08/27 09:43:26;;;;;;;8.10;5.07;;;;;;;;;;5094906;28;20024;-91
2023/08/27 09:45:51;;;;;;;6.85;4.78;;;;;;;;;;5096713;28;20072;-90
2023/08/27 09:48:21;;;;;;;8.18;4.88;;;;;;;;;;5096930;28;20503;-89
2023/08/27 09:50:47;;;;;;;8.20;4.80;;;;;;;;;;5078606;28;20108;-89
2023/08/27 09:53:12;;;;;;;6.72;4.43;;;;;;;;;;5094538;28;20070;-90
2023/08/27 09:55:38;;;;;;;7.90;4.20;;;;;;;;;;5095309;28;20078;-90
2023/08/27 09:58:04;;;;;;;7.22;5.00;;;;;;;;;;5079524;28;20024;-90
2023/08/27 10:00:29;;;;;;;8.68;4.60;;;;;;;;;;5096647;28;20075;-89
2023/08/27 10:02:56;;;;;;;6.75;4.43;;;;;;;;;;5096304;28;20068;-90
2023/08/27 10:05:27;;;;;;;5.35;4.22;;;;;;;;;;5097802;28;20039;-90
2023/08/27 10:08:00;;;;;;;8.27;5.20;;;;;;;;;;5099805;28;20031;-89
2023/08/27 10:10:26;;;;;;;7.82;4.55;;;;;;;;;;5099784;28;20036;-91
2023/08/27 10:12:52;;;;;;;7.45;4.65;;;;;;;;;;5098840;28;20437;-91
2023/08/27 10:15:20;;;;;;;5.15;3.05;;;;;;;;;;5097535;28;20407;-90
2023/08/27 10:17:46;;;;;;;8.27;4.20;;;;;;;;;;5097680;28;20062;-90
2023/08/27 10:20:11;;;;;;;9.18;4.32;;;;;;;;;;5101403;28;20415;-91
2023/08/27 10:22:37;;;;;;;7.55;4.50;;;;;;;;;;5098668;28;20040;-89
2023/08/27 10:25:04;;;;;;;7.25;4.38;;;;;;;;;;5098204;28;20058;-89
2023/08/27 10:27:29;;;;;;;3.67;2.20;;;;;;;;;;5096766;28;20062;-89
2023/08/27 10:29:55;;;;;;;5.90;2.30;;;;;;;;;;5097315;28;20040;-90
2023/08/27 10:32:20;;;;;;;4.18;2.30;;;;;;;;;;5096849;28;20502;-90
2023/08/27 10:34:46;;;;;;;5.00;2.42;;;;;;;;;;5079613;28;20032;-90
2023/08/27 10:37:11;;;;;;;4.47;2.60;;;;;;;;;;5098599;28;20119;-90
2023/08/27 10:39:37;;;;;;;3.53;2.20;;;;;;;;;;5076971;28;20570;-91
2023/08/27 10:42:03;;;;;;;4.85;2.20;;;;;;;;;;5094200;28;20024;-91
2023/08/27 10:44:29;;;;;;;5.93;2.10;;;;;;;;;;5078837;28;20043;-91
2023/08/27 10:47:19;;;;;;;3.25;1.90;;;;;;;;;;5095806;28;20028;-91
2023/08/27 10:49:45;;;;;;;6.30;2.30;;;;;;;;;;5095662;28;20057;-91
2023/08/27 10:52:14;;;;;;;3.35;2.08;;;;;;;;;;5078806;28;20024;-91
2023/08/27 10:54:39;;;;;;;3.80;2.10;;;;;;;;;;5096360;28;20387;-91
2023/08/27 10:57:23;;;;;;;5.00;2.20;;;;;;;;;;5093842;28;20047;-91
2023/08/27 10:59:49;;;;;;;4.15;2.50;;;;;;;;;;5094373;28;20043;-90
2023/08/27 11:02:17;;;;;;;4.97;2.10;;;;;;;;;;5093667;28;20016;-90
2023/08/27 11:04:43;;;;;;;3.30;1.95;;;;;;;;;;5095195;28;20459;-91
2023/08/27 11:07:11;;;;;;;2.80;1.80;;;;;;;;;;5093788;28;20123;-91
2023/08/27 11:09:47;;;;;;;3.35;1.70;;;;;;;;;;5093716;28;20047;-91
2023/08/27 11:12:25;;;;;;;4.13;1.88;;;;;;;;;;5094308;28;20032;-91
2023/08/27 11:14:51;;;;;;;9.52;1.90;;;;;;;;;;5077230;28;20411;-91
2023/08/27 11:17:25;;;;;;;2.45;2.00;;;;;;;;;;5093654;28;20097;-91
2023/08/27 11:19:50;;;;;;;2.97;1.98;;;;;;;;;;5094010;28;20086;-91
2023/08/27 11:22:19;;;;;;;3.05;1.92;;;;;;;;;;5095964;28;20019;-90
2023/08/27 11:24:45;;;;;;;3.38;2.45;;;;;;;;;;5077534;28;20505;-92
2023/08/27 11:27:10;;;;;;;5.38;2.10;;;;;;;;;;5095728;28;20032;-91
2023/08/27 11:29:42;;;;;;;5.32;2.25;;;;;;;;;;5078550;28;20491;-91
2023/08/27 11:32:08;;;;;;;5.47;2.22;;;;;;;;;;5094041;28;20035;-91
2023/08/27 11:34:35;;;;;;;3.90;2.05;;;;;;;;;;5095939;28;20028;-89
2023/08/27 11:37:00;;;;;;;5.30;2.10;;;;;;;;;;5094799;28;20039;-91
2023/08/27 11:39:26;;;;;;;5.75;2.40;;;;;;;;;;5094585;28;20028;-91
2023/08/27 11:41:51;;;;;;;2.65;1.60;;;;;;;;;;5094205;28;20028;-90
2023/08/27 11:44:17;;;;;;;5.57;1.90;;;;;;;;;;5095878;28;20055;-90
2023/08/27 11:46:44;;;;;;;2.55;1.60;;;;;;;;;;5093240;28;20051;-90
2023/08/27 11:49:12;;;;;;;3.60;1.70;;;;;;;;;;5094619;28;20028;-91
2023/08/27 11:51:38;;;;;;;3.22;1.60;;;;;;;;;;5093096;28;20079;-91
2023/08/27 11:54:07;;;;;;;4.47;1.85;;;;;;;;;;5093408;28;20072;-89
2023/08/27 11:56:37;;;;;;;4.88;2.10;;;;;;;;;;5094395;28;20058;-90
2023/08/27 11:59:06;;;;;;;3.58;1.75;;;;;;;;;;5094113;28;20034;-91
2023/08/27 12:01:32;;;;;;;3.00;1.67;;;;;;;;;;5078509;28;20476;-92
2023/08/27 12:03:58;;;;;;;4.85;1.80;;;;;;;;;;5078001;28;20036;-92
2023/08/27 12:06:28;;;;;;;5.43;2.30;;;;;;;;;;5077455;28;20450;-90
2023/08/27 12:08:54;;;;;;;4.43;1.83;;;;;;;;;;5095029;28;20403;-91
2023/08/27 12:11:22;;;;;;;4.82;1.88;;;;;;;;;;5094687;28;20028;-91
2023/08/27 12:13:47;;;;;;;6.07;2.38;;;;;;;;;;5077729;28;20096;-91
2023/08/27 12:16:16;;;;;;;2.47;1.52;;;;;;;;;;5079312;28;20471;-91
2023/08/27 12:18:45;;;;;;;3.80;2.25;;;;;;;;;;5080683;28;20032;-90
2023/08/27 12:21:11;;;;;;;3.97;1.80;;;;;;;;;;5098934;28;20056;-90
2023/08/27 12:23:37;;;;;;;4.80;2.15;;;;;;;;;;5096793;28;20544;-91
2023/08/27 12:26:02;;;;;;;7.00;2.72;;;;;;;;;;5098438;28;20051;-91
2023/08/27 12:28:28;;;;;;;6.20;2.42;;;;;;;;;;5080798;28;20044;-90
2023/08/27 12:30:55;;;;;;;5.00;2.33;;;;;;;;;;5097305;28;20039;-90
2023/08/27 12:33:34;;;;;;;3.90;2.15;;;;;;;;;;5098527;28;20110;-91
2023/08/27 12:36:03;;;;;;;5.80;2.20;;;;;;;;;;5096978;28;20028;-92
2023/08/27 12:38:29;;;;;;;5.35;2.40;;;;;;;;;;5096882;28;20085;-92
2023/08/27 12:40:55;;;;;;;3.45;1.55;;;;;;;;;;5097525;28;20490;-92
2023/08/27 12:43:20;;;;;;;2.63;1.60;;;;;;;;;;5080444;28;20082;-91
2023/08/27 12:45:46;;;;;;;3.65;2.10;;;;;;;;;;5096847;28;20114;-91
2023/08/27 12:48:11;;;;;;;4.90;2.22;;;;;;;;;;5080346;28;20020;-92
2023/08/27 12:50:37;;;;;;;3.03;1.35;;;;;;;;;;5098252;28;20054;-92
2023/08/27 12:53:02;;;;;;;2.65;1.75;;;;;;;;;;5096449;28;20028;-92
2023/08/27 12:55:28;;;;;;;4.13;1.98;;;;;;;;;;5097540;28;20032;-92
2023/08/27 12:57:53;;;;;;;4.72;2.05;;;;;;;;;;5097847;28;20028;-92
2023/08/27 13:00:20;;;;;;;3.38;1.95;;;;;;;;;;5096234;28;20035;-92
2023/08/27 13:02:46;;;;;;;3.05;1.73;;;;;;;;;;5097255;28;20028;-91
2023/08/27 13:05:11;;;;;;;6.25;2.08;;;;;;;;;;5079518;28;20510;-91
2023/08/27 13:07:37;;;;;;;4.70;1.90;;;;;;;;;;5096242;28;20036;-91
2023/08/27 13:10:04;;;;;;;3.03;1.75;;;;;;;;;;5096532;28;20044;-92
2023/08/27 13:12:32;;;;;;;5.32;3.25;;;;;;;;;;5078978;28;20522;-91
2023/08/27 13:14:57;;;;;;;5.28;2.17;;;;;;;;;;5078722;28;20499;-91
2023/08/27 13:17:22;;;;;;;5.35;1.60;;;;;;;;;;5078421;28;20088;-91
2023/08/27 13:19:48;;;;;;;4.30;1.70;;;;;;;;;;5095919;28;20491;-91
2023/08/27 13:22:13;;;;;;;6.93;2.00;;;;;;;;;;5096415;28;20058;-90
2023/08/27 13:24:39;;;;;;;3.05;2.00;;;;;;;;;;5096667;28;20036;-92
2023/08/27 13:27:04;;;;;;;2.70;1.73;;;;;;;;;;5095689;28;20047;-91
2023/08/27 13:29:30;;;;;;;8.77;2.20;;;;;;;;;;5096215;28;20641;-92
2023/08/27 13:31:56;;;;;;;3.15;2.10;;;;;;;;;;5096050;28;20036;-91
2023/08/27 13:34:21;;;;;;;10.88;2.65;;;;;;;;;;5095474;28;20624;-92
2023/08/27 13:36:47;;;;;;;4.53;2.35;;;;;;;;;;5095808;28;20071;-91
2023/08/27 13:39:12;;;;;;;4.40;2.83;;;;;;;;;;5095544;28;20039;-92
2023/08/27 13:41:37;;;;;;;5.63;2.40;;;;;;;;;;5094970;28;20020;-92
2023/08/27 13:44:03;;;;;;;5.25;2.70;;;;;;;;;;5096233;28;20040;-92
2023/08/27 13:46:30;;;;;;;6.50;2.90;;;;;;;;;;5078927;28;20022;-91
2023/08/27 13:48:55;;;;;;;5.43;2.55;;;;;;;;;;5077382;28;20032;-92
2023/08/27 13:51:21;;;;;;;5.22;2.38;;;;;;;;;;5078313;28;20077;-91
2023/08/27 13:53:47;;;;;;;3.10;2.50;;;;;;;;;;5094703;28;20044;-91
2023/08/27 13:56:12;;;;;;;5.93;3.00;;;;;;;;;;5077719;28;20433;-92
2023/08/27 13:58:40;;;;;;;5.15;2.55;;;;;;;;;;5094584;28;20503;-91
2023/08/27 14:01:05;;;;;;;6.72;3.70;;;;;;;;;;5094627;28;20501;-90
2023/08/27 14:03:31;;;;;;;4.55;3.08;;;;;;;;;;5095651;28;20028;-92
2023/08/27 14:05:56;;;;;;;4.03;2.50;;;;;;;;;;5097006;28;20054;-92
2023/08/27 14:08:22;;;;;;;5.28;2.55;;;;;;;;;;5096233;28;20426;-92
2023/08/27 14:10:48;;;;;;;6.95;2.45;;;;;;;;;;5095441;28;20024;-91
2023/08/27 14:13:13;;;;;;;6.60;2.63;;;;;;;;;;5096925;28;20559;-91
2023/08/27 14:15:39;;;;;;;3.97;2.20;;;;;;;;;;5096956;28;20036;-91
2023/08/27 14:18:04;;;;;;;4.82;2.20;;;;;;;;;;5096868;28;20044;-91
2023/08/27 14:20:30;;;;;;;4.82;1.80;;;;;;;;;;5095477;28;20020;-91
2023/08/27 14:22:55;;;;;;;4.75;2.20;;;;;;;;;;5096012;28;20088;-91
2023/08/27 14:25:21;;;;;;;4.63;2.40;;;;;;;;;;5078174;28;20452;-91